首页
METAR-TAF:

METAR-TAF

机场 :

Roben-Hood Airport

Big Rapids, 密歇根州, 美国

纬度: 43-43-21N, 经度: 085-30-15W, 海拔: 302米

当前天气观测

该预报发布于25分钟前的20:35 UTC
风速10节,风向西转西北,有时为19节阵风
温度 1°C
湿度 86%
气压 1007 hPa
能見度: 16.1公里
散云层高于1000英尺
多云层高于1900英尺
阴天层高于3500英尺

METAR: KRQB 262035Z AUTO 29010G19KT 10SM SCT010 BKN019 OVC035 01/M01 A2975 RMK AO2 T00141010

时间: 16:00 (21:00 UTC)


TAF: 丢失

超过4000个机场的气象观测和天气预报(METAR&TAF报告)。

可查询的气象台以黄色和红色小点在地图上表示。

将鼠标移到小点上方,可查看气象台名称。

然后点击查看天气观测和预报。

如需切换地图:点击带黑十字的绿色按钮放大地图;点击带横线的绿色按钮缩小地图;或者点击绿色箭头查看邻近地区的地图。


METAR-TAF: